Time,TemperatureF,DewpointF,PressureIn,WindDirection,WindDirectionDegrees,WindSpeedMPH,WindSpeedGustMPH,Humidity,HourlyPrecipIn,Conditions,Clouds,dailyrainin,SoftwareType,DateUTC
2013-07-31 00:10:00,58.3,56.0,30.13,WSW,252,0.0,0.0,92,0.00,,,0.00,weatherlink.com 1.10,2013-07-31 04:10:00,
2013-07-31 00:25:00,57.9,56.0,30.13,WSW,252,0.0,0.0,92,0.00,,,0.00,weatherlink.com 1.10,2013-07-31 04:25:00,
2013-07-31 00:40:00,57.8,56.0,30.13,WSW,252,0.0,0.0,92,0.00,,,0.00,weatherlink.com 1.10,2013-07-31 04:40:00,
2013-07-31 00:55:00,57.3,55.0,30.13,WSW,252,0.0,0.0,92,0.00,,,0.00,weatherlink.com 1.10,2013-07-31 04:55:00,
2013-07-31 01:10:00,57.1,55.0,30.13,WSW,252,0.0,0.0,92,0.00,,,0.00,weatherlink.com 1.10,2013-07-31 05:10:00,
2013-07-31 01:25:00,57.0,55.0,30.13,WSW,252,0.0,0.0,92,0.00,,,0.00,weatherlink.com 1.10,2013-07-31 05:25:00,
2013-07-31 01:40:00,57.0,55.0,30.13,WSW,252,0.0,0.0,93,0.00,,,0.00,weatherlink.com 1.10,2013-07-31 05:40:00,
2013-07-31 01:55:00,56.6,54.0,30.13,WSW,252,0.0,0.0,92,0.00,,,0.00,weatherlink.com 1.10,2013-07-31 05:55:00,
2013-07-31 02:10:00,56.4,54.0,30.12,WSW,252,0.0,0.0,92,0.00,,,0.00,weatherlink.com 1.10,2013-07-31 06:10:00,
2013-07-31 02:25:00,56.4,55.0,30.13,WSW,252,0.0,0.0,93,0.00,,,0.00,weatherlink.com 1.10,2013-07-31 06:25:00,
2013-07-31 02:40:00,56.2,54.0,30.13,WSW,252,0.0,0.0,93,0.00,,,0.00,weatherlink.com 1.10,2013-07-31 06:40:00,
2013-07-31 02:55:00,55.8,54.0,30.12,WSW,252,0.0,0.0,93,0.00,,,0.00,weatherlink.com 1.10,2013-07-31 06:55:00,
2013-07-31 03:10:00,55.6,54.0,30.12,WSW,252,0.0,0.0,93,0.00,,,0.00,weatherlink.com 1.10,2013-07-31 07:10:00,
2013-07-31 03:25:00,55.5,54.0,30.12,WSW,252,0.0,0.0,93,0.00,,,0.00,weatherlink.com 1.10,2013-07-31 07:25:00,
2013-07-31 03:40:00,55.1,53.0,30.12,WSW,252,0.0,0.0,93,0.00,,,0.00,weatherlink.com 1.10,2013-07-31 07:40:00,
2013-07-31 03:56:00,54.9,53.0,30.12,WSW,252,0.0,0.0,93,0.00,,,0.00,weatherlink.com 1.10,2013-07-31 07:56:00,
2013-07-31 04:11:00,54.8,53.0,30.12,WSW,252,0.0,0.0,93,0.00,,,0.00,weatherlink.com 1.10,2013-07-31 08:11:00,
2013-07-31 04:26:00,54.8,53.0,30.12,WSW,252,0.0,0.0,93,0.00,,,0.00,weatherlink.com 1.10,2013-07-31 08:26:00,
2013-07-31 04:41:00,54.7,53.0,30.13,WSW,252,0.0,0.0,93,0.00,,,0.00,weatherlink.com 1.10,2013-07-31 08:41:00,
2013-07-31 04:56:00,54.8,53.0,30.13,WSW,252,0.0,0.0,94,0.00,,,0.00,weatherlink.com 1.10,2013-07-31 08:56:00,
2013-07-31 05:11:00,54.9,53.0,30.13,West,273,0.0,2.0,94,0.00,,,0.00,weatherlink.com 1.10,2013-07-31 09:11:00,
2013-07-31 05:26:00,54.4,53.0,30.14,West,273,0.0,0.0,94,0.00,,,0.00,weatherlink.com 1.10,2013-07-31 09:26:00,
2013-07-31 05:41:00,54.1,52.0,30.14,West,273,0.0,0.0,93,0.00,,,0.00,weatherlink.com 1.10,2013-07-31 09:41:00,
2013-07-31 05:56:00,54.2,53.0,30.14,West,272,0.0,0.0,94,0.00,,,0.00,weatherlink.com 1.10,2013-07-31 09:56:00,
2013-07-31 06:11:00,54.0,52.0,30.14,West,272,0.0,0.0,93,0.00,,,0.00,weatherlink.com 1.10,2013-07-31 10:11:00,
2013-07-31 06:26:00,54.9,53.0,30.14,West,272,0.0,0.0,94,0.00,,,0.00,weatherlink.com 1.10,2013-07-31 10:26:00,
2013-07-31 06:41:00,55.7,54.0,30.15,West,273,0.0,0.0,94,0.00,,,0.00,weatherlink.com 1.10,2013-07-31 10:41:00,
2013-07-31 06:56:00,56.0,54.0,30.15,West,273,0.0,0.0,93,0.00,,,0.00,weatherlink.com 1.10,2013-07-31 10:56:00,
2013-07-31 07:11:00,58.5,57.0,30.15,West,273,0.0,0.0,94,0.00,,,0.00,weatherlink.com 1.10,2013-07-31 11:11:00,
2013-07-31 07:26:00,61.0,59.0,30.15,West,271,0.0,0.0,93,0.00,,,0.00,weatherlink.com 1.10,2013-07-31 11:26:00,
2013-07-31 07:41:00,65.7,64.0,30.15,West,271,0.0,0.0,93,0.00,,,0.00,weatherlink.com 1.10,2013-07-31 11:41:00,
2013-07-31 07:56:00,68.1,65.0,30.14,WSW,243,0.0,0.0,89,0.00,,,0.00,weatherlink.com 1.10,2013-07-31 11:56:00,
2013-07-31 08:11:00,69.3,65.0,30.15,WSW,245,0.0,0.0,87,0.00,,,0.00,weatherlink.com 1.10,2013-07-31 12:11:00,
2013-07-31 08:26:00,71.9,66.0,30.14,East,80,0.0,1.0,81,0.00,,,0.00,weatherlink.com 1.10,2013-07-31 12:26:00,
2013-07-31 08:41:00,72.9,66.0,30.14,ESE,118,0.0,0.0,78,0.00,,,0.00,weatherlink.com 1.10,2013-07-31 12:41:00,
2013-07-31 08:56:00,73.4,66.0,30.14,SE,124,0.0,0.0,78,0.00,,,0.00,weatherlink.com 1.10,2013-07-31 12:56:00,
2013-07-31 09:11:00,74.4,64.0,30.14,SE,124,0.0,0.0,70,0.00,,,0.00,weatherlink.com 1.10,2013-07-31 13:11:00,
2013-07-31 09:26:00,75.3,65.0,30.14,ENE,75,1.0,3.0,71,0.00,,,0.00,weatherlink.com 1.10,2013-07-31 13:26:00,
2013-07-31 09:41:00,76.7,64.0,30.14,NE,43,0.0,3.0,65,0.00,,,0.00,weatherlink.com 1.10,2013-07-31 13:41:00,
2013-07-31 09:56:00,78.1,63.0,30.14,ENE,77,2.0,5.0,61,0.00,,,0.00,weatherlink.com 1.10,2013-07-31 13:56:00,
2013-07-31 10:11:00,79.1,62.0,30.13,SSE,155,2.0,4.0,57,0.00,,,0.00,weatherlink.com 1.10,2013-07-31 14:11:00,
2013-07-31 10:41:00,80.5,61.0,30.13,ESE,109,3.0,3.0,51,0.00,,,0.00,weatherlink.com 1.10,2013-07-31 14:41:00,
2013-07-31 10:57:00,80.6,62.0,30.13,East,81,3.0,5.0,53,0.00,,,0.00,weatherlink.com 1.10,2013-07-31 14:57:00,
2013-07-31 11:12:00,80.3,60.0,30.12,SSW,210,2.0,6.0,51,0.00,,,0.00,weatherlink.com 1.10,2013-07-31 15:12:00,
2013-07-31 11:42:00,80.1,60.0,30.12,West,263,4.0,5.0,50,0.00,,,0.00,weatherlink.com 1.10,2013-07-31 15:42:00,
2013-07-31 11:57:00,81.3,62.0,30.12,ENE,68,1.0,4.0,53,0.00,,,0.00,weatherlink.com 1.10,2013-07-31 15:57:00,
2013-07-31 12:27:00,81.0,59.0,30.11,ENE,75,0.0,0.0,48,0.00,,,0.00,weatherlink.com 1.10,2013-07-31 16:27:00,
2013-07-31 12:42:00,82.7,63.0,30.11,WNW,288,0.0,4.0,51,0.00,,,0.00,weatherlink.com 1.10,2013-07-31 16:42:00,
2013-07-31 12:57:00,80.6,60.0,30.10,West,260,0.0,0.0,50,0.00,,,0.00,weatherlink.com 1.10,2013-07-31 16:57:00,
2013-07-31 13:12:00,82.2,61.0,30.10,WSW,237,5.0,7.0,48,0.00,,,0.00,weatherlink.com 1.10,2013-07-31 17:12:00,
2013-07-31 13:27:00,83.3,61.0,30.10,SSW,210,3.0,6.0,47,0.00,,,0.00,weatherlink.com 1.10,2013-07-31 17:27:00,
2013-07-31 13:42:00,83.3,61.0,30.09,NW,307,0.0,4.0,47,0.00,,,0.00,weatherlink.com 1.10,2013-07-31 17:42:00,
2013-07-31 13:57:00,82.9,61.0,30.09,WNW,282,0.0,3.0,47,0.00,,,0.00,weatherlink.com 1.10,2013-07-31 17:57:00,
2013-07-31 14:12:00,84.0,62.0,30.09,West,275,0.0,0.0,47,0.00,,,0.00,weatherlink.com 1.10,2013-07-31 18:12:00,
2013-07-31 14:27:00,83.3,60.0,30.08,NW,316,0.0,0.0,46,0.00,,,0.00,weatherlink.com 1.10,2013-07-31 18:27:00,
2013-07-31 14:42:00,82.9,62.0,30.08,NE,41,0.0,0.0,49,0.00,,,0.00,weatherlink.com 1.10,2013-07-31 18:42:00,
2013-07-31 14:57:00,85.7,63.0,30.07,East,87,0.0,0.0,47,0.00,,,0.00,weatherlink.com 1.10,2013-07-31 18:57:00,
2013-07-31 15:12:00,84.5,66.0,30.06,ESE,107,0.0,0.0,54,0.00,,,0.00,weatherlink.com 1.10,2013-07-31 19:12:00,
2013-07-31 15:27:00,84.1,67.0,30.06,ESE,120,0.0,0.0,56,0.00,,,0.00,weatherlink.com 1.10,2013-07-31 19:27:00,
2013-07-31 15:42:00,82.8,67.0,30.06,SE,139,0.0,0.0,60,0.00,,,0.00,weatherlink.com 1.10,2013-07-31 19:42:00,
2013-07-31 15:57:00,80.6,67.0,30.06,SE,133,4.0,9.0,63,0.00,,,0.00,weatherlink.com 1.10,2013-07-31 19:57:00,
2013-07-31 16:12:00,79.5,67.0,30.06,SE,146,5.0,8.0,65,0.00,,,0.00,weatherlink.com 1.10,2013-07-31 20:12:00,
2013-07-31 16:27:00,79.3,67.0,30.06,SSE,147,4.0,7.0,66,0.00,,,0.00,weatherlink.com 1.10,2013-07-31 20:27:00,
2013-07-31 16:42:00,79.2,66.0,30.06,SE,137,7.0,8.0,65,0.00,,,0.00,weatherlink.com 1.10,2013-07-31 20:42:00,
2013-07-31 16:57:00,78.0,67.0,30.06,SSE,150,4.0,11.0,68,0.00,,,0.00,weatherlink.com 1.10,2013-07-31 20:57:00,
2013-07-31 17:12:00,77.3,66.0,30.05,South,186,4.0,11.0,69,0.00,,,0.00,weatherlink.com 1.10,2013-07-31 21:12:00,
2013-07-31 17:27:00,76.7,67.0,30.05,SSE,166,4.0,9.0,72,0.00,,,0.00,weatherlink.com 1.10,2013-07-31 21:27:00,
2013-07-31 17:42:00,76.3,67.0,30.05,SE,143,6.0,8.0,74,0.00,,,0.00,weatherlink.com 1.10,2013-07-31 21:42:00,
2013-07-31 17:57:00,76.0,68.0,30.05,SSE,155,4.0,7.0,76,0.00,,,0.00,weatherlink.com 1.10,2013-07-31 21:57:00,
2013-07-31 18:12:00,75.6,68.0,30.05,SE,144,3.0,6.0,76,0.00,,,0.00,weatherlink.com 1.10,2013-07-31 22:12:00,
2013-07-31 18:27:00,75.3,68.0,30.05,ESE,122,3.0,6.0,77,0.00,,,0.00,weatherlink.com 1.10,2013-07-31 22:27:00,
2013-07-31 18:42:00,75.0,67.0,30.05,South,169,3.0,9.0,76,0.00,,,0.00,weatherlink.com 1.10,2013-07-31 22:42:00,
2013-07-31 18:57:00,74.8,67.0,30.05,SSE,166,7.0,9.0,77,0.00,,,0.00,weatherlink.com 1.10,2013-07-31 22:57:00,
2013-07-31 19:12:00,74.4,67.0,30.04,SSE,165,2.0,5.0,77,0.00,,,0.00,weatherlink.com 1.10,2013-07-31 23:12:00,
2013-07-31 19:27:00,74.1,67.0,30.04,South,169,2.0,4.0,79,0.00,,,0.00,weatherlink.com 1.10,2013-07-31 23:27:00,
2013-07-31 19:42:00,73.6,67.0,30.04,SE,144,1.0,3.0,80,0.00,,,0.00,weatherlink.com 1.10,2013-07-31 23:42:00,
2013-07-31 19:57:00,73.1,67.0,30.04,SE,142,1.0,3.0,82,0.00,,,0.00,weatherlink.com 1.10,2013-07-31 23:57:00,
2013-07-31 20:12:00,72.5,67.0,30.04,SE,135,1.0,6.0,82,0.00,,,0.00,weatherlink.com 1.10,2013-08-01 00:12:00,
2013-07-31 20:27:00,72.2,66.0,30.04,SE,135,1.0,3.0,82,0.00,,,0.00,weatherlink.com 1.10,2013-08-01 00:27:00,
2013-07-31 20:42:00,71.5,67.0,30.04,SE,144,0.0,0.0,84,0.00,,,0.00,weatherlink.com 1.10,2013-08-01 00:42:00,
2013-07-31 20:57:00,71.2,66.0,30.05,SSE,148,2.0,2.0,83,0.00,,,0.00,weatherlink.com 1.10,2013-08-01 00:57:00,
2013-07-31 21:12:00,70.9,66.0,30.04,SE,141,0.0,1.0,83,0.00,,,0.00,weatherlink.com 1.10,2013-08-01 01:12:00,
2013-07-31 21:27:00,70.3,65.0,30.05,SSE,148,0.0,0.0,84,0.00,,,0.00,weatherlink.com 1.10,2013-08-01 01:27:00,
2013-07-31 21:42:00,70.1,65.0,30.05,SE,143,0.0,1.0,84,0.00,,,0.00,weatherlink.com 1.10,2013-08-01 01:42:00,
2013-07-31 21:57:00,70.1,65.0,30.05,SSE,150,0.0,0.0,83,0.00,,,0.00,weatherlink.com 1.10,2013-08-01 01:57:00,
2013-07-31 22:12:00,70.1,65.0,30.05,SSW,197,1.0,2.0,83,0.00,,,0.00,weatherlink.com 1.10,2013-08-01 02:12:00,
2013-07-31 22:27:00,70.1,65.0,30.04,SSE,156,0.0,2.0,83,0.00,,,0.00,weatherlink.com 1.10,2013-08-01 02:27:00,
2013-07-31 22:42:00,69.8,64.0,30.04,SE,134,0.0,2.0,83,0.00,,,0.00,weatherlink.com 1.10,2013-08-01 02:42:00,
2013-07-31 22:57:00,69.5,65.0,30.04,SE,131,0.0,1.0,84,0.00,,,0.00,weatherlink.com 1.10,2013-08-01 02:57:00,
2013-07-31 23:13:00,69.2,64.0,30.04,SE,134,0.0,1.0,84,0.00,,,0.00,weatherlink.com 1.10,2013-08-01 03:13:00,
2013-07-31 23:28:00,69.3,64.0,30.04,SE,144,0.0,1.0,84,0.00,,,0.00,weatherlink.com 1.10,2013-08-01 03:28:00,
2013-07-31 23:43:00,69.3,64.0,30.03,SSE,148,0.0,0.0,84,0.00,,,0.00,weatherlink.com 1.10,2013-08-01 03:43:00,
2013-07-31 23:58:00,69.1,65.0,30.03,SE,145,0.0,0.0,85,0.00,,,0.00,weatherlink.com 1.10,2013-08-01 03:58:00,